Time;durP1;ratioP1;P1;durP2;ratioP2;P2;SDS_P1;SDS_P2;PMS_P1;PMS_P2;Temp;Humidity;BMP_temperature;BMP_pressure;BME280_temperature;BME280_humidity;BME280_pressure;Samples;Min_cycle;Max_cycle;Signal;HPM_P1;HPM_P2
2022/07/04 00:02:05;;;;;;;;;;;29.00;44.10;;;;;;5050292;28;19920;-62
2022/07/04 00:04:30;;;;;;;;;;;28.90;43.50;;;;;;5048486;28;19917;-62
2022/07/04 00:06:56;;;;;;;;;;;29.00;43.60;;;;;;5043243;28;19916;-62
2022/07/04 00:09:21;;;;;;;;;;;29.00;43.60;;;;;;5049733;28;20297;-62
2022/07/04 00:11:46;;;;;;;;;;;28.90;43.50;;;;;;5052038;28;19913;-62
2022/07/04 00:14:12;;;;;;;;;;;28.90;43.70;;;;;;5050459;28;20388;-62
2022/07/04 00:16:37;;;;;;;;;;;28.90;43.70;;;;;;5047634;28;20420;-62
2022/07/04 00:19:03;;;;;;;;;;;28.80;43.70;;;;;;5047751;28;20377;-62
2022/07/04 00:21:28;;;;;;;;;;;28.80;43.70;;;;;;5047876;28;19923;-62
2022/07/04 00:23:54;;;;;;;;;;;28.80;43.70;;;;;;5049605;28;20389;-62
2022/07/04 00:26:19;;;;;;;;;;;28.90;43.70;;;;;;5052084;28;20292;-62
2022/07/04 00:28:45;;;;;;;;;;;28.80;43.70;;;;;;5049917;28;19972;-62
2022/07/04 00:31:10;;;;;;;;;;;28.90;43.70;;;;;;5048355;28;19913;-62
2022/07/04 00:33:35;;;;;;;;;;;28.90;43.70;;;;;;5050236;28;20332;-62
2022/07/04 00:36:01;;;;;;;;;;;28.80;43.70;;;;;;5050391;28;19956;-62
2022/07/04 00:38:26;;;;;;;;;;;28.90;43.80;;;;;;5046476;28;19917;-62
2022/07/04 00:40:52;;;;;;;;;;;28.80;43.70;;;;;;5043105;28;19913;-62
2022/07/04 00:43:21;;;;;;;;;;;28.90;43.80;;;;;;5049449;28;19920;-62
2022/07/04 00:45:46;;;;;;;;;;;28.80;43.80;;;;;;5031770;28;19912;-62
2022/07/04 00:48:12;;;;;;;;;;;28.80;43.80;;;;;;5048522;28;19916;-62
2022/07/04 00:50:37;;;;;;;;;;;28.80;43.80;;;;;;5029056;28;19927;-62
2022/07/04 00:53:03;;;;;;;;;;;28.80;43.80;;;;;;5046273;28;19940;-62
2022/07/04 00:55:28;;;;;;;;;;;28.70;43.90;;;;;;5048561;28;19916;-62
2022/07/04 00:57:54;;;;;;;;;;;28.80;43.90;;;;;;5049478;28;20304;-62
2022/07/04 01:00:19;;;;;;;;;;;28.80;43.90;;;;;;5050008;28;20365;-62
2022/07/04 01:02:45;;;;;;;;;;;28.80;43.90;;;;;;5048625;28;19913;-62
2022/07/04 01:05:10;;;;;;;;;;;28.70;43.80;;;;;;5049493;28;20372;-62
2022/07/04 01:07:36;;;;;;;;;;;28.70;43.80;;;;;;5047769;28;19962;-62
2022/07/04 01:10:02;;;;;;;;;;;28.80;43.90;;;;;;5050132;28;19928;-62
2022/07/04 01:12:28;;;;;;;;;;;28.80;44.00;;;;;;5048885;28;19942;-62
2022/07/04 01:14:53;;;;;;;;;;;28.70;43.90;;;;;;5049318;28;19917;-62
2022/07/04 01:17:19;;;;;;;;;;;28.70;44.10;;;;;;5048353;28;20389;-62
2022/07/04 01:19:44;;;;;;;;;;;28.70;44.00;;;;;;5049389;28;20381;-62
2022/07/04 01:22:10;;;;;;;;;;;28.70;43.90;;;;;;5049332;28;20385;-62
2022/07/04 01:24:35;;;;;;;;;;;28.70;44.10;;;;;;5049559;28;20265;-62
2022/07/04 01:27:01;;;;;;;;;;;28.70;44.20;;;;;;5049502;28;20027;-62
2022/07/04 01:29:26;;;;;;;;;;;28.70;44.10;;;;;;5050612;28;19963;-62
2022/07/04 01:31:53;;;;;;;;;;;28.70;44.10;;;;;;5028256;28;19925;-62
2022/07/04 01:34:19;;;;;;;;;;;28.70;44.10;;;;;;5040953;28;19913;-62
2022/07/04 01:36:44;;;;;;;;;;;28.70;44.20;;;;;;5048704;28;20373;-62
2022/07/04 01:39:09;;;;;;;;;;;28.70;44.10;;;;;;5046438;28;19935;-62
2022/07/04 01:41:35;;;;;;;;;;;28.70;44.10;;;;;;5030509;28;20035;-62
2022/07/04 01:44:01;;;;;;;;;;;28.70;44.10;;;;;;5051143;28;19936;-62
2022/07/04 01:46:26;;;;;;;;;;;28.60;44.10;;;;;;5050300;28;20276;-62
2022/07/04 01:48:52;;;;;;;;;;;28.60;44.20;;;;;;5052226;28;19920;-62
2022/07/04 01:51:17;;;;;;;;;;;28.60;44.10;;;;;;5052399;28;19921;-62
2022/07/04 01:53:42;;;;;;;;;;;28.60;44.10;;;;;;5052821;28;19971;-62
2022/07/04 01:56:08;;;;;;;;;;;28.60;44.20;;;;;;5054843;28;19909;-62
2022/07/04 01:58:33;;;;;;;;;;;28.60;44.20;;;;;;5050363;28;19917;-62
2022/07/04 02:03:44;;;;;;;;;;;28.50;44.30;;;;;;5052200;28;19919;-62
2022/07/04 02:06:09;;;;;;;;;;;28.50;44.20;;;;;;5036737;28;20082;-62
2022/07/04 02:11:19;;;;;;;;;;;28.50;44.20;;;;;;5052389;28;20020;-62
2022/07/04 02:13:45;;;;;;;;;;;28.50;44.30;;;;;;5051392;28;20368;-62
2022/07/04 02:16:10;;;;;;;;;;;28.50;44.30;;;;;;5053346;28;19909;-62
2022/07/04 02:18:35;;;;;;;;;;;28.50;44.40;;;;;;5048229;28;19920;-62
2022/07/04 02:21:01;;;;;;;;;;;28.50;44.40;;;;;;5052418;28;19913;-62
2022/07/04 02:23:26;;;;;;;;;;;28.50;44.40;;;;;;5048234;28;19960;-62
2022/07/04 02:25:52;;;;;;;;;;;28.50;44.40;;;;;;5049820;28;19936;-62
2022/07/04 02:28:18;;;;;;;;;;;28.50;44.40;;;;;;5052391;28;19920;-62
2022/07/04 02:30:43;;;;;;;;;;;28.50;44.50;;;;;;5051254;28;19913;-62
2022/07/04 02:33:09;;;;;;;;;;;28.40;44.30;;;;;;5052283;28;19932;-62
2022/07/04 02:35:34;;;;;;;;;;;28.50;44.30;;;;;;5050731;28;20292;-62
2022/07/04 02:38:00;;;;;;;;;;;28.50;44.40;;;;;;5051254;28;19920;-62
2022/07/04 02:40:25;;;;;;;;;;;28.40;44.30;;;;;;5045245;28;19990;-62
2022/07/04 02:42:50;;;;;;;;;;;28.40;44.30;;;;;;5051654;28;19919;-62
2022/07/04 02:45:16;;;;;;;;;;;28.40;44.30;;;;;;5051276;28;19920;-61
2022/07/04 02:47:41;;;;;;;;;;;28.40;44.30;;;;;;5050070;28;19917;-62
2022/07/04 02:50:07;;;;;;;;;;;28.40;44.30;;;;;;5050799;28;19964;-62
2022/07/04 02:52:32;;;;;;;;;;;28.40;44.40;;;;;;5049737;28;19917;-62
2022/07/04 02:54:58;;;;;;;;;;;28.40;44.30;;;;;;5050379;28;20284;-61
2022/07/04 02:57:23;;;;;;;;;;;28.40;44.30;;;;;;5034673;28;19983;-62
2022/07/04 02:59:49;;;;;;;;;;;28.40;44.40;;;;;;5051800;28;19920;-62
2022/07/04 03:02:14;;;;;;;;;;;28.40;44.30;;;;;;5049321;28;20202;-62
2022/07/04 03:04:40;;;;;;;;;;;28.40;44.90;;;;;;5051203;28;19913;-62
2022/07/04 03:07:06;;;;;;;;;;;28.40;44.30;;;;;;5042034;28;20004;-62
2022/07/04 03:09:31;;;;;;;;;;;28.30;44.30;;;;;;5045848;28;19979;-62
2022/07/04 03:11:57;;;;;;;;;;;28.30;44.30;;;;;;5050684;28;20381;-62
2022/07/04 03:14:22;;;;;;;;;;;28.30;44.30;;;;;;5051165;28;20361;-62
2022/07/04 03:16:48;;;;;;;;;;;28.30;44.40;;;;;;5051250;28;20359;-61
2022/07/04 03:19:13;;;;;;;;;;;28.30;44.40;;;;;;5050949;28;19999;-62
2022/07/04 03:21:39;;;;;;;;;;;28.30;44.40;;;;;;5051886;28;19920;-62
2022/07/04 03:24:04;;;;;;;;;;;28.20;44.40;;;;;;5051322;28;19908;-61
2022/07/04 03:26:30;;;;;;;;;;;28.20;44.40;;;;;;5050276;28;19913;-62
2022/07/04 03:28:56;;;;;;;;;;;28.20;44.40;;;;;;5051066;28;19913;-62
2022/07/04 03:31:22;;;;;;;;;;;28.20;44.50;;;;;;5048577;28;20330;-62
2022/07/04 03:33:47;;;;;;;;;;;28.20;44.50;;;;;;5049833;28;20388;-62
2022/07/04 03:36:13;;;;;;;;;;;28.20;44.50;;;;;;5049452;28;20296;-62
2022/07/04 03:38:38;;;;;;;;;;;28.20;44.40;;;;;;5049387;28;19924;-62
2022/07/04 03:41:03;;;;;;;;;;;28.20;44.50;;;;;;5028526;28;20008;-62
2022/07/04 03:43:29;;;;;;;;;;;28.20;44.50;;;;;;5037705;28;19928;-62
2022/07/04 03:45:54;;;;;;;;;;;28.20;44.40;;;;;;5050091;28;20107;-62
2022/07/04 03:48:20;;;;;;;;;;;28.20;44.40;;;;;;5049613;28;19913;-62
2022/07/04 03:50:45;;;;;;;;;;;28.20;44.40;;;;;;5048181;28;20273;-62
2022/07/04 03:53:12;;;;;;;;;;;28.20;44.40;;;;;;5049132;28;19995;-62
2022/07/04 03:55:37;;;;;;;;;;;28.20;44.40;;;;;;5050891;28;20328;-62
2022/07/04 03:58:04;;;;;;;;;;;28.20;44.40;;;;;;5046080;28;19915;-62
2022/07/04 04:00:30;;;;;;;;;;;28.20;44.50;;;;;;5050050;28;19925;-61
2022/07/04 04:02:55;;;;;;;;;;;28.10;44.30;;;;;;5045605;28;20412;-62
2022/07/04 04:05:27;;;;;;;;;;;28.20;44.40;;;;;;5048340;28;19917;-61
2022/07/04 04:07:53;;;;;;;;;;;28.20;44.40;;;;;;5047907;28;19939;-62
2022/07/04 04:10:19;;;;;;;;;;;28.20;44.40;;;;;;5050370;28;20459;-62
2022/07/04 04:12:44;;;;;;;;;;;28.20;44.40;;;;;;5050531;28;20021;-62
2022/07/04 04:15:10;;;;;;;;;;;28.10;44.40;;;;;;5050960;28;20297;-62
2022/07/04 04:17:35;;;;;;;;;;;28.10;44.40;;;;;;5047753;28;20232;-62
2022/07/04 04:20:01;;;;;;;;;;;28.10;44.30;;;;;;5051151;28;19958;-62
2022/07/04 04:22:29;;;;;;;;;;;28.20;44.40;;;;;;5050724;28;19924;-62
2022/07/04 04:24:54;;;;;;;;;;;28.20;44.30;;;;;;5050417;28;19924;-61
2022/07/04 04:27:20;;;;;;;;;;;28.20;44.30;;;;;;5049853;28;19916;-62
2022/07/04 04:29:45;;;;;;;;;;;28.10;44.20;;;;;;5032440;28;20334;-62
2022/07/04 04:32:11;;;;;;;;;;;28.10;44.20;;;;;;5047687;28;20038;-61
2022/07/04 04:34:36;;;;;;;;;;;28.10;44.20;;;;;;5050607;28;20292;-62
2022/07/04 04:37:02;;;;;;;;;;;28.20;44.30;;;;;;5047891;28;19913;-62
2022/07/04 04:39:27;;;;;;;;;;;28.10;44.20;;;;;;5049925;28;19948;-62
2022/07/04 04:41:53;;;;;;;;;;;28.10;44.30;;;;;;5045503;28;19913;-62
2022/07/04 04:44:19;;;;;;;;;;;28.10;44.30;;;;;;5046645;28;20195;-62
2022/07/04 04:46:44;;;;;;;;;;;28.10;44.30;;;;;;5048717;28;19917;-62
2022/07/04 04:49:10;;;;;;;;;;;28.10;44.30;;;;;;5048816;28;19920;-62
2022/07/04 04:51:36;;;;;;;;;;;28.10;44.30;;;;;;5048620;28;19920;-62
2022/07/04 04:54:01;;;;;;;;;;;28.10;44.30;;;;;;5049993;28;20090;-62
2022/07/04 04:56:27;;;;;;;;;;;28.10;44.30;;;;;;5051575;28;20031;-62
2022/07/04 04:58:52;;;;;;;;;;;28.10;44.30;;;;;;5030417;28;19966;-62
2022/07/04 05:01:18;;;;;;;;;;;28.10;44.30;;;;;;5048136;28;19913;-62
2022/07/04 05:03:43;;;;;;;;;;;28.10;44.30;;;;;;5047707;28;19917;-62
2022/07/04 05:06:09;;;;;;;;;;;28.10;44.20;;;;;;5044388;28;19921;-62
2022/07/04 05:08:34;;;;;;;;;;;28.10;44.30;;;;;;5042072;28;19913;-62
2022/07/04 05:10:59;;;;;;;;;;;28.00;44.20;;;;;;5050066;28;20007;-62
2022/07/04 05:13:25;;;;;;;;;;;28.10;44.30;;;;;;5049381;28;19917;-62
2022/07/04 05:15:51;;;;;;;;;;;28.00;44.20;;;;;;5050693;28;19916;-62
2022/07/04 05:18:16;;;;;;;;;;;28.10;44.20;;;;;;5051096;28;20293;-62
2022/07/04 05:20:42;;;;;;;;;;;28.10;44.30;;;;;;5053814;28;19925;-62
2022/07/04 05:23:07;;;;;;;;;;;28.10;44.20;;;;;;5052333;28;20011;-62
2022/07/04 05:25:32;;;;;;;;;;;28.00;44.20;;;;;;5054122;28;19931;-62
2022/07/04 05:27:58;;;;;;;;;;;28.00;44.10;;;;;;5053201;28;20027;-61
2022/07/04 05:30:24;;;;;;;;;;;28.10;44.20;;;;;;5051586;28;20047;-62
2022/07/04 05:32:49;;;;;;;;;;;28.00;44.00;;;;;;5022649;28;20098;-62
2022/07/04 05:35:15;;;;;;;;;;;28.10;44.10;;;;;;5054903;28;19913;-62
2022/07/04 05:37:40;;;;;;;;;;;28.00;44.00;;;;;;5051275;28;19921;-61
2022/07/04 05:40:06;;;;;;;;;;;28.00;44.10;;;;;;5053025;28;20422;-62
2022/07/04 05:42:31;;;;;;;;;;;28.00;44.00;;;;;;5052236;28;20004;-62
2022/07/04 05:44:57;;;;;;;;;;;28.00;44.00;;;;;;5032196;28;19917;-62
2022/07/04 05:47:24;;;;;;;;;;;28.00;43.90;;;;;;5050954;28;19929;-61
2022/07/04 05:49:50;;;;;;;;;;;28.00;44.00;;;;;;5053890;28;19916;-61
2022/07/04 05:52:15;;;;;;;;;;;28.00;43.90;;;;;;5051955;28;19924;-62
2022/07/04 05:54:41;;;;;;;;;;;28.00;43.90;;;;;;5033528;28;19935;-62
2022/07/04 05:57:06;;;;;;;;;;;28.00;43.90;;;;;;5051323;28;20284;-62
2022/07/04 05:59:32;;;;;;;;;;;28.00;43.90;;;;;;5053010;28;19920;-62
2022/07/04 06:01:57;;;;;;;;;;;28.00;43.90;;;;;;5050321;28;19924;-62
2022/07/04 06:04:23;;;;;;;;;;;28.00;43.90;;;;;;5051066;28;19913;-62
2022/07/04 06:06:48;;;;;;;;;;;28.00;43.90;;;;;;5052342;28;19924;-62
2022/07/04 06:09:14;;;;;;;;;;;27.90;43.80;;;;;;5052440;28;20021;-62
2022/07/04 06:11:39;;;;;;;;;;;27.90;43.80;;;;;;5048671;28;19974;-62
2022/07/04 06:14:04;;;;;;;;;;;27.90;43.80;;;;;;5050641;28;20288;-62
2022/07/04 06:16:30;;;;;;;;;;;27.90;43.80;;;;;;5049636;28;19913;-62
2022/07/04 06:18:55;;;;;;;;;;;27.90;43.80;;;;;;5048362;28;19912;-62
2022/07/04 06:21:21;;;;;;;;;;;27.90;43.80;;;;;;5045926;28;19917;-62
2022/07/04 06:23:46;;;;;;;;;;;27.90;43.90;;;;;;5050457;28;19927;-62
2022/07/04 06:26:12;;;;;;;;;;;27.90;43.80;;;;;;5049396;28;19951;-62
2022/07/04 06:28:37;;;;;;;;;;;27.90;43.80;;;;;;5047558;28;19912;-62
2022/07/04 06:31:03;;;;;;;;;;;28.00;43.80;;;;;;5035164;28;20266;-62
2022/07/04 06:33:28;;;;;;;;;;;27.90;43.80;;;;;;5053116;28;19917;-62
2022/07/04 06:35:58;;;;;;;;;;;27.90;43.70;;;;;;5041293;28;19917;-62
2022/07/04 06:38:27;;;;;;;;;;;27.90;43.80;;;;;;5051776;28;20448;-62
2022/07/04 06:40:53;;;;;;;;;;;27.90;43.80;;;;;;5033360;28;19913;-62
2022/07/04 06:43:18;;;;;;;;;;;27.90;43.70;;;;;;5047535;28;20261;-62
2022/07/04 06:45:44;;;;;;;;;;;27.90;43.70;;;;;;5051456;28;19923;-62
2022/07/04 06:48:09;;;;;;;;;;;27.90;43.80;;;;;;5043760;28;20377;-62
2022/07/04 06:50:35;;;;;;;;;;;27.80;44.00;;;;;;5049231;28;20424;-62
2022/07/04 06:53:04;;;;;;;;;;;27.80;44.00;;;;;;5051998;28;20337;-63
2022/07/04 06:55:29;;;;;;;;;;;27.80;44.00;;;;;;5032469;28;19956;-63
2022/07/04 06:57:55;;;;;;;;;;;27.70;43.90;;;;;;5049999;28;20380;-62
2022/07/04 07:00:20;;;;;;;;;;;27.80;43.90;;;;;;5051872;28;19952;-62
2022/07/04 07:02:46;;;;;;;;;;;27.80;43.80;;;;;;5051530;28;19936;-62
2022/07/04 07:05:11;;;;;;;;;;;27.80;43.70;;;;;;5053542;28;19934;-62
2022/07/04 07:07:36;;;;;;;;;;;27.80;43.70;;;;;;5042435;28;19909;-63
2022/07/04 07:10:02;;;;;;;;;;;27.90;43.70;;;;;;5042797;28;19978;-63
2022/07/04 07:12:28;;;;;;;;;;;27.80;43.70;;;;;;5049944;28;20296;-63
2022/07/04 07:14:54;;;;;;;;;;;27.80;43.80;;;;;;5049001;28;19916;-62
2022/07/04 07:17:20;;;;;;;;;;;27.70;44.00;;;;;;5050732;28;19920;-62
2022/07/04 07:19:45;;;;;;;;;;;27.70;44.10;;;;;;5051201;28;20365;-63
2022/07/04 07:22:11;;;;;;;;;;;27.70;43.80;;;;;;5049569;28;20284;-62
2022/07/04 07:24:37;;;;;;;;;;;27.80;43.80;;;;;;5053494;28;20369;-63
2022/07/04 07:27:02;;;;;;;;;;;27.80;43.70;;;;;;5055320;28;19916;-63
2022/07/04 07:29:28;;;;;;;;;;;27.80;43.70;;;;;;5051764;28;19917;-63
2022/07/04 07:31:53;;;;;;;;;;;27.70;44.10;;;;;;5051486;28;20593;-63
2022/07/04 07:34:19;;;;;;;;;;;27.50;44.20;;;;;;5051158;28;19935;-63
2022/07/04 07:36:44;;;;;;;;;;;27.50;44.30;;;;;;5051958;28;19966;-63
2022/07/04 07:39:10;;;;;;;;;;;27.50;44.30;;;;;;5052247;28;19917;-63
2022/07/04 07:41:35;;;;;;;;;;;27.50;44.40;;;;;;5050847;28;20324;-61
2022/07/04 07:44:01;;;;;;;;;;;27.50;44.30;;;;;;5059910;28;19913;-61
2022/07/04 07:46:26;;;;;;;;;;;27.50;44.40;;;;;;5052073;28;19919;-61
2022/07/04 07:48:51;;;;;;;;;;;27.40;44.60;;;;;;5051086;28;19913;-62
2022/07/04 07:51:17;;;;;;;;;;;27.30;44.60;;;;;;5051957;28;19912;-62
2022/07/04 07:53:42;;;;;;;;;;;27.20;44.50;;;;;;5051984;28;19913;-62
2022/07/04 07:56:08;;;;;;;;;;;27.20;44.60;;;;;;5051829;28;19999;-62
2022/07/04 07:58:33;;;;;;;;;;;27.20;44.60;;;;;;5051527;28;19913;-62
2022/07/04 08:00:59;;;;;;;;;;;27.20;44.40;;;;;;5051861;28;19913;-61
2022/07/04 08:06:09;;;;;;;;;;;27.40;43.90;;;;;;5058756;28;19920;-62
2022/07/04 08:08:35;;;;;;;;;;;27.40;43.90;;;;;;5051328;28;20357;-62
2022/07/04 08:11:00;;;;;;;;;;;27.30;43.90;;;;;;5064870;28;20005;-63
2022/07/04 08:13:26;;;;;;;;;;;27.30;43.80;;;;;;5051496;28;20344;-63
2022/07/04 08:15:51;;;;;;;;;;;27.30;43.90;;;;;;5051484;28;20325;-62
2022/07/04 08:18:17;;;;;;;;;;;27.30;43.90;;;;;;5049202;28;20249;-61
2022/07/04 08:20:43;;;;;;;;;;;27.30;43.90;;;;;;5051223;28;20011;-61
2022/07/04 08:23:09;;;;;;;;;;;27.40;43.60;;;;;;5049980;28;20360;-61
2022/07/04 08:25:34;;;;;;;;;;;27.40;44.30;;;;;;5045859;28;19912;-62
2022/07/04 08:28:00;;;;;;;;;;;27.40;43.70;;;;;;5050277;28;20427;-61
2022/07/04 08:30:25;;;;;;;;;;;27.40;43.70;;;;;;5050865;28;20011;-61
2022/07/04 08:32:50;;;;;;;;;;;27.40;43.80;;;;;;5047161;28;19928;-63
2022/07/04 08:35:16;;;;;;;;;;;27.40;43.90;;;;;;5045781;28;20004;-61
2022/07/04 08:37:41;;;;;;;;;;;27.40;44.20;;;;;;5049012;28;20011;-61
2022/07/04 08:40:07;;;;;;;;;;;27.60;43.40;;;;;;5047338;28;19919;-62
2022/07/04 08:42:37;;;;;;;;;;;27.70;43.00;;;;;;5052793;28;20024;-62
2022/07/04 08:45:03;;;;;;;;;;;27.80;42.80;;;;;;5028662;28;19920;-62
2022/07/04 08:47:30;;;;;;;;;;;27.90;42.60;;;;;;5046438;28;19924;-62
2022/07/04 08:50:03;;;;;;;;;;;27.90;42.30;;;;;;5049933;28;19938;-62
2022/07/04 08:52:36;;;;;;;;;;;27.90;42.40;;;;;;5049297;28;20361;-62
2022/07/04 09:00:30;;;;;;;;;;;27.70;42.40;;;;;;5058327;28;19967;-62
2022/07/04 09:02:56;;;;;;;;;;;27.80;42.30;;;;;;5054234;28;20309;-63
2022/07/04 09:05:22;;;;;;;;;;;27.80;42.20;;;;;;5052939;28;20011;-62
2022/07/04 09:07:47;;;;;;;;;;;27.70;42.30;;;;;;5048865;28;19957;-63
2022/07/04 09:10:13;;;;;;;;;;;27.80;42.00;;;;;;5050771;28;19920;-63
2022/07/04 09:12:38;;;;;;;;;;;27.80;41.90;;;;;;5052442;28;19913;-63
2022/07/04 09:15:05;;;;;;;;;;;27.80;41.80;;;;;;5052864;28;19920;-62
2022/07/04 09:17:32;;;;;;;;;;;27.80;41.90;;;;;;5053169;28;19913;-62
2022/07/04 09:20:10;;;;;;;;;;;27.80;41.70;;;;;;5024941;28;19959;-63
2022/07/04 09:22:35;;;;;;;;;;;27.80;41.60;;;;;;5066981;28;20070;-62
2022/07/04 09:25:01;;;;;;;;;;;27.80;41.60;;;;;;5051057;28;20007;-63
2022/07/04 09:27:31;;;;;;;;;;;27.80;41.70;;;;;;5047137;28;19912;-63
2022/07/04 09:29:56;;;;;;;;;;;27.80;41.70;;;;;;5046116;28;19913;-62
2022/07/04 09:32:38;;;;;;;;;;;27.80;42.20;;;;;;5049273;28;19927;-63
2022/07/04 09:35:16;;;;;;;;;;;27.80;41.70;;;;;;5048862;28;19962;-63
2022/07/04 09:37:45;;;;;;;;;;;27.80;41.20;;;;;;5045160;28;19917;-63
2022/07/04 09:40:21;;;;;;;;;;;27.80;41.00;;;;;;5054630;28;19944;-63
2022/07/04 09:42:46;;;;;;;;;;;27.80;41.40;;;;;;5037607;28;19908;-63
2022/07/04 09:45:12;;;;;;;;;;;27.80;41.40;;;;;;5054160;28;20000;-63
2022/07/04 09:47:38;;;;;;;;;;;27.80;41.20;;;;;;5053622;28;19940;-63
2022/07/04 09:50:05;;;;;;;;;;;27.80;41.20;;;;;;5047462;28;19917;-63
2022/07/04 09:52:32;;;;;;;;;;;27.80;41.40;;;;;;5048366;28;20276;-63
2022/07/04 09:54:58;;;;;;;;;;;27.80;41.20;;;;;;5048543;28;20439;-62
2022/07/04 09:57:24;;;;;;;;;;;27.80;41.40;;;;;;5041487;28;20337;-63
2022/07/04 09:59:50;;;;;;;;;;;27.80;41.20;;;;;;5056234;28;20011;-62
2022/07/04 10:02:15;;;;;;;;;;;27.80;41.20;;;;;;5049878;28;19913;-63
2022/07/04 10:04:43;;;;;;;;;;;27.80;41.30;;;;;;5053854;28;19940;-62
2022/07/04 10:07:09;;;;;;;;;;;27.80;41.20;;;;;;5052391;28;20386;-63
2022/07/04 10:09:34;;;;;;;;;;;27.80;41.20;;;;;;5051832;28;19960;-62
2022/07/04 10:12:01;;;;;;;;;;;27.80;41.10;;;;;;5052383;28;19928;-63
2022/07/04 10:14:27;;;;;;;;;;;27.80;41.50;;;;;;5050182;28;20702;-63
2022/07/04 10:16:52;;;;;;;;;;;27.80;41.10;;;;;;5048468;28;19956;-62
2022/07/04 10:19:17;;;;;;;;;;;27.80;41.10;;;;;;5052914;28;19958;-60
2022/07/04 10:21:43;;;;;;;;;;;27.80;41.10;;;;;;5052516;28;19920;-61
2022/07/04 10:24:08;;;;;;;;;;;27.80;40.90;;;;;;5050451;28;20500;-63
2022/07/04 10:26:34;;;;;;;;;;;27.80;40.90;;;;;;5051963;28;20443;-63
2022/07/04 10:28:59;;;;;;;;;;;27.80;40.70;;;;;;5041181;28;20587;-63
2022/07/04 10:31:25;;;;;;;;;;;27.90;40.80;;;;;;5057068;28;19912;-62
2022/07/04 10:33:52;;;;;;;;;;;27.90;40.80;;;;;;5049648;28;19917;-63
2022/07/04 10:36:21;;;;;;;;;;;27.90;40.70;;;;;;5049747;28;19950;-63
2022/07/04 10:38:58;;;;;;;;;;;27.80;40.80;;;;;;5041054;28;20007;-62
2022/07/04 10:41:24;;;;;;;;;;;27.80;40.70;;;;;;5046205;28;19913;-63
2022/07/04 10:43:53;;;;;;;;;;;27.80;40.50;;;;;;5049744;28;19917;-63
2022/07/04 10:46:25;;;;;;;;;;;27.90;40.70;;;;;;5045143;28;20004;-63
2022/07/04 10:48:51;;;;;;;;;;;27.90;40.60;;;;;;5025607;28;19928;-63
2022/07/04 10:51:22;;;;;;;;;;;27.80;40.40;;;;;;5050286;28;19914;-63
2022/07/04 10:53:57;;;;;;;;;;;27.90;40.40;;;;;;5045200;28;20284;-63
2022/07/04 10:56:25;;;;;;;;;;;27.90;40.40;;;;;;5047571;28;19912;-63
2022/07/04 10:58:51;;;;;;;;;;;27.90;40.10;;;;;;5048672;28;20280;-63
2022/07/04 11:01:17;;;;;;;;;;;27.90;40.40;;;;;;5046125;28;20012;-63
2022/07/04 11:03:46;;;;;;;;;;;27.90;40.40;;;;;;5030017;28;20387;-63
2022/07/04 11:06:37;;;;;;;;;;;27.90;40.50;;;;;;5043992;28;20383;-64
2022/07/04 11:09:16;;;;;;;;;;;27.80;40.60;;;;;;5045130;28;20292;-64
2022/07/04 11:11:51;;;;;;;;;;;27.90;40.60;;;;;;5045366;28;19912;-63
2022/07/04 11:14:35;;;;;;;;;;;27.90;40.40;;;;;;5048497;28;19944;-63
2022/07/04 11:17:01;;;;;;;;;;;27.90;40.30;;;;;;5040821;28;19925;-63
2022/07/04 11:19:30;;;;;;;;;;;27.90;40.00;;;;;;5051249;28;19991;-63
2022/07/04 11:21:55;;;;;;;;;;;27.90;40.00;;;;;;5049176;28;19913;-63
2022/07/04 11:24:21;;;;;;;;;;;27.90;40.00;;;;;;5040615;28;19913;-63
2022/07/04 11:26:47;;;;;;;;;;;27.90;40.00;;;;;;5038258;28;19917;-63
2022/07/04 11:29:13;;;;;;;;;;;27.90;40.10;;;;;;5044188;28;20003;-64
2022/07/04 11:31:42;;;;;;;;;;;28.00;39.90;;;;;;5043212;28;19917;-63
2022/07/04 11:34:08;;;;;;;;;;;28.00;39.50;;;;;;5044173;28;19936;-63
2022/07/04 11:36:33;;;;;;;;;;;28.00;39.50;;;;;;5048751;28;19909;-63
2022/07/04 11:39:00;;;;;;;;;;;28.00;39.50;;;;;;5050042;28;19916;-63
2022/07/04 11:47:17;;;;;;;;;;;28.00;40.00;;;;;;5043380;28;20328;-63
2022/07/04 11:49:43;;;;;;;;;;;28.00;40.00;;;;;;5047072;28;20373;-63
2022/07/04 11:52:08;;;;;;;;;;;28.00;39.90;;;;;;5050299;28;19916;-63
2022/07/04 11:54:34;;;;;;;;;;;28.00;39.90;;;;;;5049669;28;19917;-64
2022/07/04 11:57:09;;;;;;;;;;;28.00;40.00;;;;;;5045984;28;20311;-64
2022/07/04 11:59:34;;;;;;;;;;;28.00;39.90;;;;;;5047272;28;20292;-63
2022/07/04 12:02:09;;;;;;;;;;;28.00;40.00;;;;;;5047469;28;19921;-63
2022/07/04 12:04:34;;;;;;;;;;;28.00;39.70;;;;;;5049889;28;19913;-63
2022/07/04 12:07:02;;;;;;;;;;;28.10;39.80;;;;;;5051550;28;19917;-63
2022/07/04 12:09:27;;;;;;;;;;;28.10;39.70;;;;;;5050527;28;20369;-63
2022/07/04 12:11:53;;;;;;;;;;;28.10;39.60;;;;;;5051603;28;19920;-63
2022/07/04 12:14:19;;;;;;;;;;;28.10;39.60;;;;;;5050884;28;19920;-63
2022/07/04 12:16:47;;;;;;;;;;;28.10;39.60;;;;;;5050682;28;20281;-63
2022/07/04 12:19:12;;;;;;;;;;;28.10;39.60;;;;;;5051749;28;20010;-63
2022/07/04 12:21:38;;;;;;;;;;;28.10;40.40;;;;;;5050377;28;20412;-64
2022/07/04 12:24:04;;;;;;;;;;;28.10;39.80;;;;;;5032488;28;20360;-63
2022/07/04 12:26:30;;;;;;;;;;;28.10;39.70;;;;;;5050521;28;20332;-63
2022/07/04 12:28:56;;;;;;;;;;;28.10;39.60;;;;;;5051485;28;20025;-63
2022/07/04 12:31:37;;;;;;;;;;;28.10;39.50;;;;;;5050551;28;19916;-63
2022/07/04 12:34:02;;;;;;;;;;;28.10;39.50;;;;;;5050361;28;19913;-63
2022/07/04 12:36:28;;;;;;;;;;;28.10;39.30;;;;;;5051505;28;19982;-64
2022/07/04 12:38:55;;;;;;;;;;;28.10;39.40;;;;;;5050221;28;19920;-63
2022/07/04 12:41:28;;;;;;;;;;;28.10;39.30;;;;;;5051519;28;19912;-64
2022/07/04 12:43:54;;;;;;;;;;;28.10;39.20;;;;;;5050036;28;20399;-64
2022/07/04 12:46:30;;;;;;;;;;;28.10;39.10;;;;;;5048704;28;20004;-63
2022/07/04 12:48:56;;;;;;;;;;;28.10;39.00;;;;;;5042893;28;19921;-63
2022/07/04 12:51:22;;;;;;;;;;;28.10;39.20;;;;;;5063419;28;19939;-62
2022/07/04 12:53:48;;;;;;;;;;;28.10;39.30;;;;;;5053403;28;20265;-62
2022/07/04 12:56:46;;;;;;;;;;;28.00;39.50;;;;;;5046079;28;19917;-61
2022/07/04 12:59:15;;;;;;;;;;;28.00;39.50;;;;;;4992433;28;20377;-62
2022/07/04 13:01:42;;;;;;;;;;;28.00;39.50;;;;;;5049256;28;19939;-61
2022/07/04 13:04:07;;;;;;;;;;;28.10;39.60;;;;;;5030662;28;19909;-62
2022/07/04 13:06:33;;;;;;;;;;;28.10;39.60;;;;;;5053996;28;19919;-62
2022/07/04 13:08:58;;;;;;;;;;;28.10;39.60;;;;;;5047643;28;19925;-62
2022/07/04 13:14:08;;;;;;;;;;;28.10;39.60;;;;;;5048569;28;20019;-62
2022/07/04 13:16:34;;;;;;;;;;;28.20;39.30;;;;;;5049845;28;19948;-62
2022/07/04 13:18:59;;;;;;;;;;;28.20;39.60;;;;;;5045683;28;19916;-62
2022/07/04 13:21:25;;;;;;;;;;;28.20;39.40;;;;;;5048714;28;19974;-62
2022/07/04 13:23:51;;;;;;;;;;;28.20;39.60;;;;;;5043497;28;19913;-62
2022/07/04 13:26:17;;;;;;;;;;;28.20;39.60;;;;;;5043390;28;19909;-62
2022/07/04 13:28:42;;;;;;;;;;;28.10;39.60;;;;;;5050200;28;19924;-62
2022/07/04 13:31:08;;;;;;;;;;;28.10;39.60;;;;;;5049570;28;19969;-62
2022/07/04 13:33:33;;;;;;;;;;;28.10;39.60;;;;;;5046777;28;19963;-62
2022/07/04 13:35:58;;;;;;;;;;;28.20;39.60;;;;;;5029831;28;19917;-62
2022/07/04 13:38:24;;;;;;;;;;;28.20;39.60;;;;;;5048821;28;19917;-62
2022/07/04 13:40:49;;;;;;;;;;;28.20;39.60;;;;;;5048784;28;20007;-63
2022/07/04 13:43:15;;;;;;;;;;;28.20;39.40;;;;;;5049375;28;20296;-63
2022/07/04 13:45:42;;;;;;;;;;;28.30;39.50;;;;;;5049447;28;20376;-65
2022/07/04 13:48:08;;;;;;;;;;;28.30;39.30;;;;;;5049101;28;19994;-63
2022/07/04 13:50:37;;;;;;;;;;;28.30;39.30;;;;;;5049804;28;20357;-63
2022/07/04 13:53:03;;;;;;;;;;;28.20;39.40;;;;;;5048945;28;19967;-63
2022/07/04 13:55:28;;;;;;;;;;;28.20;39.20;;;;;;5051364;28;19972;-63
2022/07/04 13:57:53;;;;;;;;;;;28.20;39.40;;;;;;5050319;28;20522;-63
2022/07/04 14:00:19;;;;;;;;;;;28.20;40.30;;;;;;5053189;28;19921;-63
2022/07/04 14:02:44;;;;;;;;;;;28.10;39.60;;;;;;5051663;28;19967;-63
2022/07/04 14:05:10;;;;;;;;;;;28.20;39.60;;;;;;5052079;28;19921;-63
2022/07/04 14:07:35;;;;;;;;;;;28.20;39.60;;;;;;5053808;28;19958;-63
2022/07/04 14:10:01;;;;;;;;;;;28.20;39.30;;;;;;5051297;28;19928;-63
2022/07/04 14:12:26;;;;;;;;;;;28.20;39.30;;;;;;5050267;28;19955;-62
2022/07/04 14:14:52;;;;;;;;;;;28.30;39.20;;;;;;5051913;28;19912;-61
2022/07/04 14:17:17;;;;;;;;;;;28.30;39.00;;;;;;5048630;28;20000;-63
2022/07/04 14:19:43;;;;;;;;;;;28.30;39.30;;;;;;5051117;28;19966;-62
2022/07/04 14:22:08;;;;;;;;;;;28.30;39.30;;;;;;5049474;28;19920;-62
2022/07/04 14:24:33;;;;;;;;;;;28.30;39.40;;;;;;5049506;28;19913;-63
2022/07/04 14:26:59;;;;;;;;;;;28.30;39.30;;;;;;5050349;28;20404;-63
2022/07/04 14:29:24;;;;;;;;;;;28.40;39.60;;;;;;5051873;28;20368;-63
2022/07/04 14:31:51;;;;;;;;;;;28.30;39.70;;;;;;5048214;28;20313;-63
2022/07/04 14:34:17;;;;;;;;;;;28.40;39.70;;;;;;5049784;28;20011;-61